createdAt,value
2022-11-03T00:00:12.635Z,0.00
2022-11-03T00:01:09.445Z,0.00
2022-11-03T00:02:09.610Z,0.00
2022-11-03T00:03:09.789Z,0.00
2022-11-03T00:04:09.409Z,0.00
2022-11-03T00:05:09.398Z,0.00
2022-11-03T00:06:09.396Z,0.00
2022-11-03T00:07:09.369Z,0.00
2022-11-03T00:08:09.436Z,0.00
2022-11-03T00:09:09.367Z,0.00
2022-11-03T00:10:09.364Z,0.00
2022-11-03T00:11:09.308Z,0.00
2022-11-03T00:12:09.309Z,0.00
2022-11-03T00:13:09.286Z,0.00
2022-11-03T00:14:09.311Z,0.00
2022-11-03T00:15:09.282Z,0.00
2022-11-03T00:16:09.265Z,0.00
2022-11-03T00:17:09.269Z,0.00
2022-11-03T00:18:09.241Z,0.00
2022-11-03T00:19:09.225Z,0.00
2022-11-03T00:20:09.217Z,0.00
2022-11-03T00:21:09.217Z,0.00
2022-11-03T00:22:09.208Z,0.00
2022-11-03T00:23:09.244Z,0.00
2022-11-03T00:24:09.185Z,0.00
2022-11-03T00:25:09.183Z,0.00
2022-11-03T00:26:09.149Z,0.00
2022-11-03T00:27:09.147Z,0.00
2022-11-03T00:28:09.133Z,0.00
2022-11-03T00:29:09.120Z,0.00
2022-11-03T00:30:09.106Z,0.00
2022-11-03T00:31:09.099Z,0.00
2022-11-03T00:32:09.105Z,0.00
2022-11-03T00:33:09.344Z,0.00
2022-11-03T00:34:09.072Z,0.00
2022-11-03T00:35:09.064Z,0.00
2022-11-03T00:36:09.037Z,0.00
2022-11-03T00:37:09.040Z,0.00
2022-11-03T00:38:09.027Z,0.00
2022-11-03T00:39:09.034Z,0.00
2022-11-03T00:40:09.001Z,0.00
2022-11-03T00:41:08.991Z,0.00
2022-11-03T00:42:08.975Z,0.00
2022-11-03T00:43:09.092Z,0.00
2022-11-03T00:44:08.966Z,0.00
2022-11-03T00:45:16.464Z,0.00
2022-11-03T00:46:08.934Z,0.00
2022-11-03T00:47:08.911Z,0.00
2022-11-03T00:48:08.904Z,0.00
2022-11-03T00:49:08.924Z,0.00
2022-11-03T00:50:08.893Z,0.00
2022-11-03T00:51:08.889Z,0.00
2022-11-03T00:52:08.885Z,0.00
2022-11-03T00:53:09.022Z,0.00
2022-11-03T00:54:08.844Z,0.00
2022-11-03T00:55:08.835Z,0.00
2022-11-03T00:56:08.833Z,0.00
2022-11-03T00:57:08.817Z,0.00
2022-11-03T00:58:08.804Z,0.00
2022-11-03T00:59:08.779Z,0.00
2022-11-03T01:00:08.811Z,0.00
2022-11-03T01:01:08.815Z,0.00
2022-11-03T01:02:08.816Z,0.00
2022-11-03T01:03:08.936Z,0.00
2022-11-03T01:04:08.731Z,0.00
2022-11-03T01:05:08.731Z,0.00
2022-11-03T01:06:08.723Z,0.00
2022-11-03T01:07:08.706Z,0.00
2022-11-03T01:08:08.718Z,0.00
2022-11-03T01:09:08.688Z,0.00
2022-11-03T01:10:08.693Z,0.00
2022-11-03T01:11:08.653Z,0.00
2022-11-03T01:12:08.659Z,0.00
2022-11-03T01:13:08.918Z,0.00
2022-11-03T01:14:08.658Z,0.00
2022-11-03T01:15:08.600Z,0.00
2022-11-03T01:16:08.608Z,0.00
2022-11-03T01:17:08.598Z,0.00
2022-11-03T01:18:08.590Z,0.00
2022-11-03T01:19:08.559Z,0.00
2022-11-03T01:20:09.241Z,0.00
2022-11-03T01:21:08.543Z,0.00
2022-11-03T01:22:11.150Z,0.00
2022-11-03T01:23:08.900Z,0.00
2022-11-03T01:24:08.507Z,0.00
2022-11-03T01:25:08.509Z,0.00
2022-11-03T01:26:08.483Z,0.00
2022-11-03T01:27:08.467Z,0.00
2022-11-03T01:28:08.484Z,0.00
2022-11-03T01:29:08.451Z,0.00
2022-11-03T01:30:08.440Z,0.00
2022-11-03T01:31:08.426Z,0.00
2022-11-03T01:32:08.444Z,0.00
2022-11-03T01:33:08.827Z,0.00
2022-11-03T01:34:08.395Z,0.00
2022-11-03T01:35:08.392Z,0.00
2022-11-03T01:36:08.373Z,0.00
2022-11-03T01:37:08.360Z,0.00
2022-11-03T01:38:08.366Z,0.00
2022-11-03T01:39:08.354Z,0.00
2022-11-03T01:40:08.367Z,0.00
2022-11-03T01:41:08.379Z,0.00
2022-11-03T01:42:08.305Z,0.00
2022-11-03T01:43:08.577Z,0.00
2022-11-03T01:44:08.303Z,0.00
2022-11-03T01:45:08.270Z,0.00
2022-11-03T01:46:08.265Z,0.00
2022-11-03T01:47:08.271Z,0.00
2022-11-03T01:48:08.246Z,0.00
2022-11-03T01:49:08.236Z,0.00
2022-11-03T01:50:08.219Z,0.00
2022-11-03T01:51:08.220Z,0.00
2022-11-03T01:52:08.195Z,0.00
2022-11-03T01:53:08.535Z,0.00
2022-11-03T01:54:08.194Z,0.00
2022-11-03T01:55:08.170Z,0.00
2022-11-03T01:56:08.150Z,0.00
2022-11-03T01:57:08.175Z,0.00
2022-11-03T01:58:08.136Z,0.00
2022-11-03T01:59:08.129Z,0.00
2022-11-03T02:00:08.105Z,0.00
2022-11-03T02:01:08.160Z,0.00
2022-11-03T02:02:08.278Z,0.00
2022-11-03T02:03:08.409Z,0.00
2022-11-03T02:04:08.076Z,0.00
2022-11-03T02:05:08.053Z,0.00
2022-11-03T02:06:08.041Z,0.00
2022-11-03T02:07:08.030Z,0.00
2022-11-03T02:09:08.007Z,0.00
2022-11-03T02:10:08.025Z,0.00
2022-11-03T02:11:08.011Z,0.00
2022-11-03T02:12:07.969Z,0.00
2022-11-03T02:13:08.294Z,0.00
2022-11-03T02:14:07.946Z,0.00
2022-11-03T02:15:07.958Z,0.00
2022-11-03T02:16:07.925Z,0.00
2022-11-03T02:17:07.950Z,0.00
2022-11-03T02:18:07.912Z,0.00
2022-11-03T02:19:07.910Z,0.00
2022-11-03T02:20:07.904Z,0.00
2022-11-03T02:21:07.871Z,0.00
2022-11-03T02:22:07.858Z,0.00
2022-11-03T02:23:08.193Z,0.00
2022-11-03T02:24:07.839Z,0.00
2022-11-03T02:25:07.850Z,0.00
2022-11-03T02:26:07.836Z,0.00
2022-11-03T02:27:07.811Z,0.00
2022-11-03T02:28:07.795Z,0.00
2022-11-03T02:29:07.802Z,0.00
2022-11-03T02:30:07.784Z,0.00
2022-11-03T02:31:07.760Z,0.00
2022-11-03T02:32:07.745Z,0.00
2022-11-03T02:33:08.299Z,0.00
2022-11-03T02:34:07.721Z,0.00
2022-11-03T02:35:07.727Z,0.00
2022-11-03T02:36:07.737Z,0.00
2022-11-03T02:37:07.714Z,0.00
2022-11-03T02:38:07.720Z,0.00
2022-11-03T02:39:07.676Z,0.00
2022-11-03T02:40:07.663Z,0.00
2022-11-03T02:41:07.704Z,0.00
2022-11-03T02:42:07.643Z,0.00
2022-11-03T02:43:07.883Z,0.00
2022-11-03T02:44:07.610Z,0.00
2022-11-03T02:45:07.623Z,0.00
2022-11-03T02:46:15.121Z,0.00
2022-11-03T02:47:07.598Z,0.00
2022-11-03T02:48:07.568Z,0.00
2022-11-03T02:49:07.670Z,0.00
2022-11-03T02:50:07.563Z,0.00
2022-11-03T02:51:07.554Z,0.00
2022-11-03T02:52:07.528Z,0.00
2022-11-03T02:53:07.940Z,0.00
2022-11-03T02:54:07.501Z,0.00
2022-11-03T02:55:07.531Z,0.00
2022-11-03T02:56:07.493Z,0.00
2022-11-03T02:57:07.470Z,0.00
2022-11-03T02:58:07.490Z,0.00
2022-11-03T02:59:07.449Z,0.00
2022-11-03T03:00:07.452Z,0.00
2022-11-03T03:01:07.510Z,0.00
2022-11-03T03:02:07.554Z,0.00
2022-11-03T03:03:08.057Z,0.00
2022-11-03T03:04:07.401Z,0.00
2022-11-03T03:05:07.385Z,0.00
2022-11-03T03:06:07.382Z,0.00
2022-11-03T03:07:07.377Z,0.00
2022-11-03T03:08:07.364Z,0.00
2022-11-03T03:09:07.338Z,0.00
2022-11-03T03:10:07.334Z,0.00
2022-11-03T03:11:07.328Z,0.00
2022-11-03T03:12:07.333Z,0.00
2022-11-03T03:13:07.776Z,0.00
2022-11-03T03:14:07.295Z,0.00
2022-11-03T03:15:07.290Z,0.00
2022-11-03T03:16:07.259Z,0.00
2022-11-03T03:17:07.270Z,0.00
2022-11-03T03:18:07.249Z,0.00
2022-11-03T03:19:07.244Z,0.00
2022-11-03T03:20:07.215Z,0.00
2022-11-03T03:21:07.218Z,0.00
2022-11-03T03:22:07.195Z,0.00
2022-11-03T03:23:11.336Z,0.00
2022-11-03T03:24:07.181Z,0.00
2022-11-03T03:25:07.181Z,0.00
2022-11-03T03:26:07.145Z,0.00
2022-11-03T03:27:07.178Z,0.00
2022-11-03T03:28:07.142Z,0.00
2022-11-03T03:29:07.132Z,0.00
2022-11-03T03:30:07.102Z,0.00
2022-11-03T03:31:07.103Z,0.00
2022-11-03T03:32:07.097Z,0.00
2022-11-03T03:33:07.403Z,0.00
2022-11-03T03:34:23.621Z,0.00
2022-11-03T03:35:08.052Z,0.00
2022-11-03T03:36:07.033Z,0.00
2022-11-03T03:37:07.052Z,0.00
2022-11-03T03:38:07.369Z,0.00
2022-11-03T03:39:07.021Z,0.00
2022-11-03T03:40:06.990Z,0.00
2022-11-03T03:41:10.732Z,0.00
2022-11-03T03:42:06.984Z,0.00
2022-11-03T03:43:06.976Z,0.00
2022-11-03T03:44:06.946Z,0.00
2022-11-03T03:45:06.955Z,0.00
2022-11-03T03:46:06.936Z,0.00
2022-11-03T03:47:06.935Z,0.00
2022-11-03T03:48:07.191Z,0.00
2022-11-03T03:49:06.916Z,0.00
2022-11-03T03:50:06.880Z,0.00
2022-11-03T03:51:06.872Z,0.00
2022-11-03T03:52:06.856Z,0.00
2022-11-03T03:53:06.863Z,0.00
2022-11-03T03:54:06.834Z,0.00
2022-11-03T03:55:06.843Z,0.00
2022-11-03T03:56:06.820Z,0.00
2022-11-03T03:57:06.805Z,0.00
2022-11-03T03:58:07.163Z,0.00
2022-11-03T03:59:06.796Z,0.00
2022-11-03T04:01:15.355Z,0.00
2022-11-03T04:02:15.441Z,0.00
2022-11-03T04:03:15.199Z,0.00
2022-11-03T04:04:15.206Z,0.00
2022-11-03T04:05:15.177Z,0.00
2022-11-03T04:06:15.165Z,0.00
2022-11-03T04:07:15.189Z,0.00
2022-11-03T04:08:15.149Z,0.00
2022-11-03T04:09:15.156Z,0.00
2022-11-03T04:10:15.117Z,0.00
2022-11-03T04:11:15.118Z,0.00
2022-11-03T04:12:15.111Z,0.00
2022-11-03T04:13:15.089Z,0.00
2022-11-03T04:14:15.089Z,0.00
2022-11-03T04:15:15.077Z,0.00
2022-11-03T04:16:15.052Z,0.00
2022-11-03T04:17:15.073Z,0.00
2022-11-03T04:18:15.040Z,0.00
2022-11-03T04:19:15.064Z,0.00
2022-11-03T04:20:15.027Z,0.00
2022-11-03T04:21:15.000Z,0.00
2022-11-03T04:22:15.707Z,0.00
2022-11-03T04:23:14.994Z,0.00
2022-11-03T04:24:14.988Z,0.00
2022-11-03T04:25:14.971Z,0.00
2022-11-03T04:26:14.952Z,0.00
2022-11-03T04:27:14.936Z,0.00
2022-11-03T04:28:14.936Z,0.00
2022-11-03T04:29:14.914Z,0.00
2022-11-03T04:30:14.911Z,0.00
2022-11-03T04:31:14.887Z,0.00
2022-11-03T04:32:14.880Z,0.00
2022-11-03T04:33:14.887Z,0.00
2022-11-03T04:34:14.875Z,0.00
2022-11-03T04:35:14.842Z,0.00
2022-11-03T04:36:14.867Z,0.00
2022-11-03T04:37:14.845Z,0.00
2022-11-03T04:38:14.871Z,0.00
2022-11-03T04:39:14.826Z,0.00
2022-11-03T04:40:14.801Z,0.00
2022-11-03T04:41:14.799Z,0.00
2022-11-03T04:42:14.798Z,0.00
2022-11-03T04:43:14.756Z,0.00
2022-11-03T04:44:14.767Z,0.00
2022-11-03T04:45:14.732Z,0.00
2022-11-03T04:46:14.741Z,0.00
2022-11-03T04:47:14.722Z,0.00
2022-11-03T04:48:14.715Z,0.00
2022-11-03T04:49:14.707Z,0.00
2022-11-03T04:50:14.692Z,0.00
2022-11-03T04:51:14.680Z,0.00
2022-11-03T04:52:14.680Z,0.00
2022-11-03T04:53:14.641Z,0.00
2022-11-03T04:54:14.650Z,0.00
2022-11-03T04:55:14.622Z,0.00
2022-11-03T04:56:14.619Z,0.00
2022-11-03T04:57:14.598Z,0.00
2022-11-03T04:58:14.590Z,0.00
2022-11-03T04:59:14.599Z,0.00
2022-11-03T05:00:14.567Z,0.00
2022-11-03T05:01:17.248Z,0.00
2022-11-03T05:02:15.553Z,0.00
2022-11-03T05:03:14.529Z,0.00
2022-11-03T05:04:14.556Z,0.00
2022-11-03T05:05:14.507Z,0.00
2022-11-03T05:06:14.501Z,0.00
2022-11-03T05:07:14.484Z,0.00
2022-11-03T05:08:14.499Z,0.00
2022-11-03T05:09:14.490Z,0.00
2022-11-03T05:10:14.488Z,0.00
2022-11-03T05:11:14.458Z,0.00
2022-11-03T05:12:14.449Z,0.00
2022-11-03T05:13:14.420Z,0.00
2022-11-03T05:14:14.412Z,0.00
2022-11-03T05:15:14.422Z,0.00
2022-11-03T05:16:14.406Z,0.00
2022-11-03T05:17:14.408Z,0.00
2022-11-03T05:18:14.386Z,0.00
2022-11-03T05:19:14.367Z,0.00
2022-11-03T05:20:14.345Z,0.00
2022-11-03T05:21:14.331Z,0.00
2022-11-03T05:22:14.340Z,0.00
2022-11-03T05:23:14.307Z,0.00
2022-11-03T05:25:14.288Z,0.00
2022-11-03T05:26:14.296Z,0.00
2022-11-03T05:27:14.294Z,0.00
2022-11-03T05:28:14.261Z,0.00
2022-11-03T05:29:14.287Z,0.00
2022-11-03T05:30:14.247Z,0.00
2022-11-03T05:31:14.246Z,0.00
2022-11-03T05:32:14.215Z,0.00
2022-11-03T05:33:14.211Z,0.00
2022-11-03T05:34:14.190Z,0.00
2022-11-03T05:35:14.188Z,0.00
2022-11-03T05:36:14.169Z,0.00
2022-11-03T05:37:14.151Z,0.00
2022-11-03T05:38:14.147Z,0.00
2022-11-03T05:39:14.162Z,0.00
2022-11-03T05:40:14.142Z,0.00
2022-11-03T05:41:14.129Z,0.00
2022-11-03T05:42:14.107Z,0.00
2022-11-03T05:43:14.104Z,0.00
2022-11-03T05:44:14.078Z,0.00
2022-11-03T05:45:14.067Z,0.00
2022-11-03T05:46:14.064Z,0.00
2022-11-03T05:47:14.065Z,0.00
2022-11-03T05:48:14.056Z,0.00
2022-11-03T05:49:14.048Z,0.00
2022-11-03T05:50:14.060Z,4.00
2022-11-03T05:51:14.127Z,0.00
2022-11-03T05:52:14.020Z,0.00
2022-11-03T05:53:13.973Z,4.00
2022-11-03T05:54:18.588Z,4.00
2022-11-03T05:55:14.954Z,0.00
2022-11-03T05:56:13.989Z,4.00
2022-11-03T05:57:13.948Z,4.00
2022-11-03T05:58:13.941Z,4.00
2022-11-03T05:59:13.912Z,4.00
2022-11-03T06:00:13.932Z,8.00
2022-11-03T06:01:21.496Z,8.00
2022-11-03T06:02:14.143Z,8.00
2022-11-03T06:03:13.872Z,12.00
2022-11-03T06:04:13.859Z,12.00
2022-11-03T06:05:13.851Z,16.00
2022-11-03T06:06:13.837Z,16.00
2022-11-03T06:07:13.832Z,16.00
2022-11-03T06:08:13.870Z,20.00
2022-11-03T06:09:13.813Z,28.00
2022-11-03T06:10:13.790Z,32.00
2022-11-03T06:11:13.778Z,36.00
2022-11-03T06:12:13.803Z,36.00
2022-11-03T06:13:13.764Z,40.00
2022-11-03T06:14:13.746Z,44.00
2022-11-03T06:15:13.776Z,52.00
2022-11-03T06:16:15.052Z,60.00
2022-11-03T06:17:13.724Z,68.00
2022-11-03T06:18:13.719Z,76.00
2022-11-03T06:19:13.766Z,88.00
2022-11-03T06:20:13.698Z,100.00
2022-11-03T06:21:13.669Z,104.00
2022-11-03T06:22:13.694Z,116.00
2022-11-03T06:23:13.729Z,132.00
2022-11-03T06:24:13.635Z,140.00
2022-11-03T06:25:13.685Z,152.00
2022-11-03T06:26:13.642Z,164.00
2022-11-03T06:27:13.599Z,176.00
2022-11-03T06:28:13.609Z,188.00
2022-11-03T06:29:13.578Z,204.00
2022-11-03T06:30:13.569Z,220.00
2022-11-03T06:31:13.912Z,236.00
2022-11-03T06:32:13.934Z,264.00
2022-11-03T06:33:13.592Z,288.00
2022-11-03T06:34:13.533Z,320.00
2022-11-03T06:35:13.539Z,356.00
2022-11-03T06:36:13.700Z,392.00
2022-11-03T06:37:13.753Z,432.00
2022-11-03T06:38:13.515Z,472.00
2022-11-03T06:39:13.580Z,508.00
2022-11-03T06:40:13.476Z,548.00
2022-11-03T06:41:13.497Z,588.00
2022-11-03T06:42:13.498Z,636.00
2022-11-03T06:43:13.482Z,680.00
2022-11-03T06:44:13.446Z,724.00
2022-11-03T06:45:13.447Z,768.00
2022-11-03T06:46:13.778Z,816.00
2022-11-03T06:47:13.435Z,872.00
2022-11-03T06:48:13.375Z,924.00
2022-11-03T06:49:13.646Z,972.00
2022-11-03T06:50:13.354Z,1024.00
2022-11-03T06:51:13.352Z,1080.00
2022-11-03T06:52:13.331Z,1140.00
2022-11-03T06:53:13.337Z,1200.00
2022-11-03T06:54:13.331Z,1268.00
2022-11-03T06:55:16.728Z,1344.00
2022-11-03T06:56:13.290Z,1420.00
2022-11-03T06:57:13.294Z,1500.00
2022-11-03T06:58:13.265Z,1592.00
2022-11-03T06:59:13.272Z,1680.00
2022-11-03T07:00:32.976Z,1776.00
2022-11-03T07:01:14.429Z,1876.00
2022-11-03T07:02:13.335Z,1980.00
2022-11-03T07:03:13.245Z,2092.00
2022-11-03T07:04:13.215Z,2204.00
2022-11-03T07:05:13.208Z,2320.00
2022-11-03T07:06:13.190Z,2436.00
2022-11-03T07:07:13.208Z,2560.00
2022-11-03T07:08:13.197Z,2676.00
2022-11-03T07:09:13.797Z,2812.00
2022-11-03T07:10:13.312Z,2952.00
2022-11-03T07:11:13.147Z,3092.00
2022-11-03T07:12:13.158Z,3236.00
2022-11-03T07:13:20.396Z,3372.00
2022-11-03T07:14:15.294Z,3492.00
2022-11-03T07:15:14.919Z,3628.00
2022-11-03T07:16:17.714Z,3812.00
2022-11-03T07:17:14.080Z,3960.00
2022-11-03T07:18:13.058Z,4084.00
2022-11-03T07:19:13.051Z,4212.00
2022-11-03T07:20:13.134Z,4436.00
2022-11-03T07:21:13.028Z,4812.00
2022-11-03T07:22:13.130Z,5256.00
2022-11-03T07:23:13.005Z,5756.00
2022-11-03T07:24:13.019Z,6256.00
2022-11-03T07:25:12.989Z,6988.00
2022-11-03T07:26:12.957Z,7056.00
2022-11-03T07:27:12.939Z,7144.00
2022-11-03T07:28:12.957Z,10288.00
2022-11-03T07:29:12.935Z,12024.00
2022-11-03T07:30:12.911Z,13832.00
2022-11-03T07:31:16.247Z,15200.00
2022-11-03T07:32:12.956Z,15680.00
2022-11-03T07:33:12.896Z,10884.00
2022-11-03T07:34:12.975Z,10504.00
2022-11-03T07:35:12.909Z,11300.00
2022-11-03T07:36:15.812Z,11996.00
2022-11-03T07:37:12.835Z,12764.00
2022-11-03T07:38:12.821Z,11272.00
2022-11-03T07:40:14.472Z,10312.00
2022-11-03T07:41:15.492Z,11772.00
2022-11-03T07:42:14.428Z,12164.00
2022-11-03T07:43:14.954Z,11508.00
2022-11-03T07:44:14.410Z,13248.00
2022-11-03T07:45:14.397Z,11956.00
2022-11-03T07:46:14.618Z,11440.00
2022-11-03T07:47:14.376Z,12704.00
2022-11-03T07:48:14.381Z,9628.00
2022-11-03T07:49:14.359Z,12208.00
2022-11-03T07:50:14.371Z,12520.00
2022-11-03T07:51:14.344Z,9864.00
2022-11-03T07:52:14.349Z,10104.00
2022-11-03T07:53:14.333Z,11160.00
2022-11-03T07:54:14.307Z,12352.00
2022-11-03T07:55:14.317Z,11436.00
2022-11-03T07:56:14.398Z,11508.00
2022-11-03T07:57:14.309Z,12092.00
2022-11-03T07:58:14.253Z,15776.00
2022-11-03T07:59:14.327Z,18304.00
2022-11-03T08:00:14.260Z,20768.00
2022-11-03T08:01:14.280Z,21248.00
2022-11-03T08:02:14.319Z,16640.00
2022-11-03T08:03:14.248Z,13324.00
2022-11-03T08:04:14.265Z,11260.00
2022-11-03T08:05:14.306Z,10956.00
2022-11-03T08:06:17.244Z,9960.00
2022-11-03T08:07:15.154Z,9616.00
2022-11-03T08:08:14.145Z,10332.00
2022-11-03T08:09:14.181Z,12372.00
2022-11-03T08:10:16.941Z,13372.00
2022-11-03T08:12:14.174Z,14180.00
2022-11-03T08:13:14.129Z,16832.00
2022-11-03T08:14:14.079Z,19392.00
2022-11-03T08:15:14.118Z,20960.00
2022-11-03T08:16:14.047Z,21216.00
2022-11-03T08:17:14.138Z,26752.00
2022-11-03T08:18:14.076Z,19168.00
2022-11-03T08:19:14.027Z,20992.00
2022-11-03T08:20:28.955Z,22560.00
2022-11-03T08:21:16.979Z,25920.00
2022-11-03T08:22:14.006Z,19552.00
2022-11-03T08:23:30.505Z,15068.00
2022-11-03T08:24:14.966Z,14308.00
2022-11-03T08:25:13.988Z,13924.00
2022-11-03T08:26:13.947Z,12492.00
2022-11-03T08:27:15.490Z,10828.00
2022-11-03T08:28:14.910Z,9640.00
2022-11-03T08:29:13.917Z,9608.00
2022-11-03T08:30:13.922Z,9660.00
2022-11-03T08:31:13.901Z,9624.00
2022-11-03T08:32:13.893Z,9448.00
2022-11-03T08:33:22.591Z,9456.00
2022-11-03T08:34:13.876Z,10912.00
2022-11-03T08:35:13.851Z,11284.00
2022-11-03T08:36:13.881Z,11544.00
2022-11-03T08:37:13.891Z,10276.00
2022-11-03T08:38:13.844Z,9924.00
2022-11-03T08:39:13.813Z,9392.00
2022-11-03T08:40:13.821Z,10616.00
2022-11-03T08:41:13.808Z,11520.00
2022-11-03T08:42:13.793Z,9824.00
2022-11-03T08:43:13.777Z,8444.00
2022-11-03T08:44:13.833Z,6724.00
2022-11-03T08:45:13.750Z,6328.00
2022-11-03T08:46:17.573Z,6164.00
2022-11-03T08:47:13.717Z,5580.00
2022-11-03T08:48:13.703Z,4980.00
2022-11-03T08:49:13.696Z,4664.00
2022-11-03T08:50:13.719Z,4460.00
2022-11-03T08:51:14.332Z,4340.00
2022-11-03T08:52:13.675Z,4268.00
2022-11-03T08:53:13.697Z,4232.00
2022-11-03T08:54:13.645Z,4224.00
2022-11-03T08:55:16.499Z,4248.00
2022-11-03T08:56:15.886Z,4312.00
2022-11-03T08:57:13.611Z,4420.00
2022-11-03T08:58:13.625Z,4608.00
2022-11-03T08:59:13.592Z,4888.00
2022-11-03T09:00:13.573Z,5248.00
2022-11-03T09:01:13.764Z,5708.00
2022-11-03T09:02:13.570Z,6368.00
2022-11-03T09:03:13.652Z,7356.00
2022-11-03T09:04:13.901Z,14356.00
2022-11-03T09:05:13.697Z,13876.00
2022-11-03T22:45:09.773Z,0.00
2022-11-03T22:46:09.723Z,0.00
2022-11-03T22:47:11.230Z,0.00
2022-11-03T22:48:09.711Z,0.00
2022-11-03T22:49:09.689Z,0.00
2022-11-03T22:50:09.689Z,0.00
2022-11-03T22:51:09.680Z,0.00
2022-11-03T22:52:09.651Z,0.00
2022-11-03T22:53:10.025Z,0.00
2022-11-03T22:54:09.646Z,0.00
2022-11-03T22:55:09.637Z,0.00
2022-11-03T22:56:09.608Z,0.00
2022-11-03T22:57:09.613Z,0.00
2022-11-03T22:58:09.605Z,0.00
2022-11-03T22:59:09.604Z,0.00
2022-11-03T23:00:09.591Z,0.00
2022-11-03T23:01:09.660Z,0.00
2022-11-03T23:02:09.737Z,0.00
2022-11-03T23:03:09.911Z,0.00
2022-11-03T23:04:09.537Z,0.00
2022-11-03T23:05:09.518Z,0.00
2022-11-03T23:06:09.496Z,0.00
2022-11-03T23:07:09.490Z,0.00
2022-11-03T23:08:09.514Z,0.00
2022-11-03T23:09:09.490Z,0.00
2022-11-03T23:10:09.454Z,0.00
2022-11-03T23:11:09.446Z,0.00
2022-11-03T23:12:09.446Z,0.00
2022-11-03T23:13:09.920Z,0.00
2022-11-03T23:14:09.442Z,0.00
2022-11-03T23:15:09.403Z,0.00
2022-11-03T23:16:09.385Z,0.00
2022-11-03T23:17:09.428Z,0.00
2022-11-03T23:18:09.366Z,0.00
2022-11-03T23:19:09.374Z,0.00
2022-11-03T23:20:09.362Z,0.00
2022-11-03T23:21:09.354Z,0.00
2022-11-03T23:22:09.339Z,0.00
2022-11-03T23:23:09.752Z,0.00
2022-11-03T23:24:09.324Z,0.00
2022-11-03T23:25:09.295Z,0.00
2022-11-03T23:26:09.286Z,0.00
2022-11-03T23:27:09.297Z,0.00
2022-11-03T23:28:09.255Z,0.00
2022-11-03T23:29:09.294Z,0.00
2022-11-03T23:30:09.248Z,0.00
2022-11-03T23:31:09.241Z,0.00
2022-11-03T23:32:09.212Z,0.00
2022-11-03T23:33:09.632Z,0.00
2022-11-03T23:34:09.212Z,0.00
2022-11-03T23:35:09.185Z,0.00
2022-11-03T23:36:09.168Z,0.00
2022-11-03T23:37:09.175Z,0.00
2022-11-03T23:38:09.557Z,0.00
2022-11-03T23:39:09.140Z,0.00
2022-11-03T23:40:09.144Z,0.00
2022-11-03T23:41:09.125Z,0.00
2022-11-03T23:42:09.135Z,0.00
2022-11-03T23:43:09.099Z,0.00
2022-11-03T23:44:09.088Z,0.00
2022-11-03T23:45:09.090Z,0.00
2022-11-03T23:46:09.058Z,0.00
2022-11-03T23:47:09.052Z,0.00
2022-11-03T23:48:09.564Z,0.00
2022-11-03T23:49:09.065Z,0.00
2022-11-03T23:50:09.019Z,0.00
2022-11-03T23:51:09.011Z,0.00
2022-11-03T23:52:09.019Z,0.00
2022-11-03T23:53:09.010Z,0.00
2022-11-03T23:54:08.975Z,0.00
2022-11-03T23:55:08.979Z,0.00
2022-11-03T23:56:08.956Z,0.00
2022-11-03T23:57:08.973Z,0.00
2022-11-03T23:58:09.303Z,0.00
2022-11-03T23:59:08.935Z,0.00
